createdAt,value
2023-02-07T00:01:14.879Z,100282.06
2023-02-07T00:04:39.255Z,100296.72
2023-02-07T00:08:00.107Z,100294.97
2023-02-07T00:11:37.114Z,100276.94
2023-02-07T00:14:57.768Z,100282.94
2023-02-07T00:18:18.480Z,100294.22
2023-02-07T00:21:39.452Z,100286.50
2023-02-07T00:25:09.603Z,100275.38
2023-02-07T00:28:33.130Z,100285.69
2023-02-07T00:31:56.974Z,100270.22
2023-02-07T00:35:19.197Z,100269.38
2023-02-07T00:38:40.165Z,100283.28
2023-02-07T00:42:08.081Z,100277.28
2023-02-07T00:45:40.586Z,100280.81
2023-02-07T00:49:07.494Z,100273.16
2023-02-07T00:52:28.181Z,100282.63
2023-02-07T00:55:48.880Z,100297.22
2023-02-07T00:59:10.440Z,100291.22
2023-02-07T01:02:33.774Z,100278.31
2023-02-07T01:05:54.690Z,100265.34
2023-02-07T01:09:29.177Z,100253.28
2023-02-07T01:12:55.685Z,100242.13
2023-02-07T01:16:28.397Z,100243.91
2023-02-07T01:19:52.078Z,100237.88
2023-02-07T01:23:15.622Z,100235.28
2023-02-07T01:26:45.646Z,100229.22
2023-02-07T01:30:11.881Z,100234.34
2023-02-07T01:33:32.655Z,100207.72
2023-02-07T01:36:56.139Z,100211.88
2023-02-07T01:40:17.283Z,100231.59
2023-02-07T01:43:39.240Z,100215.22
2023-02-07T01:47:00.758Z,100233.34
2023-02-07T01:50:32.104Z,100226.44
2023-02-07T01:54:15.481Z,100221.25
2023-02-07T01:57:36.590Z,100234.16
2023-02-07T02:00:58.440Z,100224.69
2023-02-07T02:04:19.088Z,100225.56
2023-02-07T02:07:42.964Z,100235.91
2023-02-07T02:11:47.891Z,100235.06
2023-02-07T02:15:38.125Z,100235.91
2023-02-07T02:19:44.476Z,100240.22
2023-02-07T02:23:39.608Z,100223.06
2023-02-07T02:27:18.922Z,100229.09
2023-02-07T02:31:16.712Z,100237.72
2023-02-07T02:34:58.217Z,100248.97
2023-02-07T02:38:33.958Z,100255.00
2023-02-07T02:42:10.485Z,100247.25
2023-02-07T02:45:42.270Z,100235.16
2023-02-07T02:49:20.945Z,100224.78
2023-02-07T02:52:50.659Z,100212.72
2023-02-07T02:56:32.500Z,100215.25
2023-02-07T03:00:06.781Z,100210.06
2023-02-07T03:04:24.436Z,100235.91
2023-02-07T03:07:58.151Z,100239.38
2023-02-07T03:11:17.232Z,100238.50
2023-02-07T03:14:37.278Z,100239.34
2023-02-07T03:17:57.512Z,100244.47
2023-02-07T03:21:14.489Z,100228.97
2023-02-07T03:24:32.578Z,100228.94
2023-02-07T03:27:43.503Z,100227.22
2023-02-07T03:30:57.781Z,100228.06
2023-02-07T03:34:14.520Z,100240.94
2023-02-07T03:37:30.908Z,100244.44
2023-02-07T03:40:47.845Z,100238.41
2023-02-07T03:43:57.305Z,100248.75
2023-02-07T03:47:03.449Z,100233.28
2023-02-07T03:50:11.004Z,100245.34
2023-02-07T03:53:17.164Z,100242.75
2023-02-07T03:56:26.554Z,100241.94
2023-02-07T03:59:34.312Z,100238.50
2023-02-07T04:02:41.042Z,100230.81
2023-02-07T04:05:49.800Z,100254.88
2023-02-07T04:08:56.803Z,100243.66
2023-02-07T04:12:07.875Z,100247.06
2023-02-07T04:15:16.313Z,100247.00
2023-02-07T04:18:22.420Z,100240.09
2023-02-07T04:21:32.405Z,100244.34
2023-02-07T04:24:38.285Z,100245.19
2023-02-07T04:27:47.837Z,100252.03
2023-02-07T04:30:54.594Z,100253.72
2023-02-07T04:34:04.927Z,100252.81
2023-02-07T04:37:11.867Z,100254.53
2023-02-07T04:40:19.263Z,100254.53
2023-02-07T04:43:28.189Z,100246.72
2023-02-07T04:46:41.548Z,100248.38
2023-02-07T04:49:47.567Z,100244.91
2023-02-07T04:52:57.797Z,100238.88
2023-02-07T04:56:06.326Z,100241.44
2023-02-07T04:59:15.680Z,100259.53
2023-02-07T05:02:21.521Z,100251.75
2023-02-07T05:05:28.746Z,100248.34
2023-02-07T05:08:34.762Z,100256.09
2023-02-07T05:11:41.452Z,100258.66
2023-02-07T05:14:50.009Z,100264.66
2023-02-07T05:17:57.280Z,100254.31
2023-02-07T05:21:07.836Z,100245.72
2023-02-07T05:24:14.800Z,100256.06
2023-02-07T05:27:20.699Z,100248.34
2023-02-07T05:30:30.506Z,100258.88
2023-02-07T05:33:36.191Z,100251.50
2023-02-07T05:36:43.528Z,100259.41
2023-02-07T05:39:49.556Z,100272.41
2023-02-07T05:42:57.338Z,100267.25
2023-02-07T05:46:06.167Z,100268.13
2023-02-07T05:49:16.573Z,100261.19
2023-02-07T05:52:22.558Z,100263.69
2023-02-07T05:55:29.557Z,100265.44
2023-02-07T05:58:35.541Z,100273.97
2023-02-07T06:01:43.803Z,100280.00
2023-02-07T06:05:04.802Z,100272.28
2023-02-07T06:08:25.616Z,100282.63
2023-02-07T06:11:33.184Z,100281.78
2023-02-07T06:14:39.569Z,100278.34
2023-02-07T06:17:49.004Z,100281.00
2023-02-07T06:20:55.419Z,100281.00
2023-02-07T06:24:02.243Z,100293.91
2023-02-07T06:27:12.693Z,100288.75
2023-02-07T06:30:19.605Z,100311.06
2023-02-07T06:33:28.285Z,100295.53
2023-02-07T06:36:35.246Z,100304.13
2023-02-07T06:39:41.373Z,100305.84
2023-02-07T06:42:53.212Z,100301.47
2023-02-07T06:45:59.890Z,100299.66
2023-02-07T06:49:11.512Z,100292.63
2023-02-07T06:52:17.799Z,100308.91
2023-02-07T06:55:24.790Z,100301.78
2023-02-07T06:58:37.080Z,100304.34
2023-02-07T07:01:44.608Z,100313.59
2023-02-07T07:04:53.363Z,100304.91
2023-02-07T07:08:01.994Z,100306.72
2023-02-07T07:11:08.415Z,100324.66
2023-02-07T07:14:16.179Z,100328.00
2023-02-07T07:17:22.191Z,100319.31
2023-02-07T07:20:38.764Z,100318.31
2023-02-07T07:23:44.908Z,100324.97
2023-02-07T07:26:54.481Z,100316.16
2023-02-07T07:30:00.562Z,100315.94
2023-02-07T07:33:10.742Z,100316.59
2023-02-07T07:36:19.404Z,100316.47
2023-02-07T07:39:26.640Z,100312.09
2023-02-07T07:42:32.659Z,100304.22
2023-02-07T07:45:59.796Z,100308.50
2023-02-07T07:49:05.820Z,100295.34
2023-02-07T07:52:15.246Z,100300.16
2023-02-07T07:55:21.595Z,100302.44
2023-02-07T07:58:30.809Z,100304.16
2023-02-07T08:01:36.933Z,100298.66
2023-02-07T08:04:43.747Z,100310.56
2023-02-07T08:07:52.407Z,100309.38
2023-02-07T08:11:05.478Z,100305.47
2023-02-07T08:14:11.422Z,100308.91
2023-02-07T08:17:23.270Z,100299.44
2023-02-07T08:20:36.158Z,100306.84
2023-02-07T08:23:45.954Z,100301.16
2023-02-07T08:26:51.980Z,100300.47
2023-02-07T08:29:58.911Z,100298.72
2023-02-07T08:33:05.031Z,100292.19
2023-02-07T08:36:12.281Z,100307.56
2023-02-07T08:39:27.085Z,100308.44
2023-02-07T08:42:36.613Z,100310.13
2023-02-07T08:45:42.794Z,100305.69
2023-02-07T08:48:50.094Z,100308.69
2023-02-07T08:51:56.807Z,100309.81
2023-02-07T08:55:08.294Z,100314.59
2023-02-07T08:58:14.400Z,100311.31
2023-02-07T09:01:23.669Z,100308.22
2023-02-07T09:04:29.926Z,100312.50
2023-02-07T09:07:36.666Z,100297.78
2023-02-07T09:10:47.490Z,100287.56
2023-02-07T09:13:54.414Z,100300.13
2023-02-07T09:17:03.868Z,100295.19
2023-02-07T09:20:11.860Z,100290.34
2023-02-07T09:23:20.907Z,100283.91
2023-02-07T09:26:32.449Z,100285.41
2023-02-07T09:29:38.716Z,100280.03
2023-02-07T09:32:46.107Z,100276.97
2023-02-07T09:35:54.859Z,100277.97
2023-02-07T09:39:03.784Z,100270.38
2023-02-07T09:42:34.955Z,100276.44
2023-02-07T09:45:51.678Z,100273.63
2023-02-07T09:49:13.397Z,100278.63
2023-02-07T09:52:32.193Z,100279.09
2023-02-07T09:55:52.912Z,100268.09
2023-02-07T09:59:25.174Z,100273.16
2023-02-07T10:02:47.720Z,100281.88
2023-02-07T10:06:17.459Z,100275.09
2023-02-07T10:09:43.442Z,100265.34
2023-02-07T10:13:41.708Z,100272.75
2023-02-07T10:17:31.609Z,100269.22
2023-02-07T10:20:49.254Z,100262.16
2023-02-07T10:24:27.729Z,100258.47
2023-02-07T10:27:48.892Z,100249.22
2023-02-07T10:31:05.356Z,100251.56
2023-02-07T10:34:24.622Z,100242.88
2023-02-07T10:37:40.476Z,100251.19
2023-02-07T10:41:03.484Z,100237.84
2023-02-07T10:44:16.717Z,100238.38
2023-02-07T10:47:26.402Z,100233.75
2023-02-07T10:50:35.354Z,100235.72
2023-02-07T10:54:04.691Z,100235.09
2023-02-07T10:57:23.734Z,100234.25
2023-02-07T11:00:38.517Z,100227.91
2023-02-07T11:03:44.818Z,100225.63
2023-02-07T11:07:04.596Z,100228.34
2023-02-07T11:10:21.590Z,100225.28
2023-02-07T11:13:32.799Z,100227.84
2023-02-07T11:16:39.331Z,100232.81
2023-02-07T11:19:49.177Z,100232.22
2023-02-07T11:23:00.179Z,100238.31
2023-02-07T11:26:08.740Z,100232.75
2023-02-07T11:29:22.267Z,100242.63
2023-02-07T11:32:31.740Z,100243.97
2023-02-07T11:35:40.099Z,100242.63
2023-02-07T11:38:53.974Z,100241.91
2023-02-07T11:42:04.771Z,100248.47
2023-02-07T11:45:18.572Z,100241.25
2023-02-07T11:48:31.574Z,100247.09
2023-02-07T11:51:40.099Z,100251.47
2023-02-07T11:54:57.831Z,100245.66
2023-02-07T11:58:17.996Z,100249.50
2023-02-07T12:01:32.809Z,100245.53
2023-02-07T12:04:42.471Z,100250.13
2023-02-07T12:07:55.385Z,100248.16
2023-02-07T12:11:15.554Z,100242.50
2023-02-07T12:14:35.975Z,100243.75
2023-02-07T12:17:59.755Z,100246.03
2023-02-07T12:21:21.145Z,100237.31
2023-02-07T12:24:37.118Z,100229.66
2023-02-07T12:27:53.397Z,100227.09
2023-02-07T12:31:17.963Z,100223.56
2023-02-07T12:34:36.909Z,100221.94
2023-02-07T12:37:55.673Z,100223.50
2023-02-07T12:41:15.682Z,100228.75
2023-02-07T12:44:37.690Z,100218.06
2023-02-07T12:48:07.029Z,100217.41
2023-02-07T12:51:33.605Z,100191.44
2023-02-07T12:54:58.500Z,100204.66
2023-02-07T12:58:31.887Z,100196.03
2023-02-07T13:01:52.820Z,100184.78
2023-02-07T13:05:46.905Z,100185.25
2023-02-07T13:09:10.914Z,100186.41
2023-02-07T13:12:28.134Z,100180.28
2023-02-07T13:15:50.173Z,100191.84
2023-02-07T13:19:14.714Z,100181.97
2023-02-07T13:22:40.093Z,100178.22
2023-02-07T13:25:53.436Z,100180.63
2023-02-07T13:29:04.369Z,100193.53
2023-02-07T13:32:21.829Z,100191.06
2023-02-07T13:35:38.349Z,100200.78
2023-02-07T13:39:11.509Z,100198.91
2023-02-07T13:42:36.404Z,100194.81
2023-02-07T13:45:59.266Z,100197.59
2023-02-07T13:49:22.523Z,100202.94
2023-02-07T13:52:46.100Z,100205.84
2023-02-07T13:55:53.810Z,100195.84
2023-02-07T13:59:12.976Z,100200.22
2023-02-07T14:02:24.775Z,100202.88
2023-02-07T14:05:37.572Z,100196.16
2023-02-07T14:08:48.221Z,100196.91
2023-02-07T14:12:04.793Z,100210.69
2023-02-07T14:16:02.050Z,100201.50
2023-02-07T14:19:14.243Z,100206.41
2023-02-07T14:22:24.875Z,100197.06
2023-02-07T14:25:46.949Z,100199.13
2023-02-07T14:28:52.961Z,100196.34
2023-02-07T14:32:04.119Z,100194.91
2023-02-07T14:35:40.831Z,100193.66
2023-02-07T14:39:07.132Z,100203.72
2023-02-07T14:42:24.941Z,100187.94
2023-02-07T14:45:36.340Z,100184.31
2023-02-07T14:48:54.291Z,100179.59
2023-02-07T14:52:10.682Z,100171.97
2023-02-07T14:55:27.575Z,100168.09
2023-02-07T14:58:45.663Z,100164.66
2023-02-07T15:01:51.681Z,100163.94
2023-02-07T15:04:58.588Z,100161.44
2023-02-07T15:08:22.091Z,100169.72
2023-02-07T15:11:30.649Z,100165.34
2023-02-07T15:14:39.713Z,100174.84
2023-02-07T15:17:47.829Z,100173.00
2023-02-07T15:20:59.490Z,100185.31
2023-02-07T15:24:19.822Z,100197.59
2023-02-07T15:27:28.831Z,100202.34
2023-02-07T15:30:37.381Z,100192.16
2023-02-07T15:33:53.777Z,100212.09
2023-02-07T15:37:03.989Z,100208.59
2023-02-07T15:40:20.486Z,100215.50
2023-02-07T15:43:35.498Z,100218.88
2023-02-07T15:46:54.489Z,100220.53
2023-02-07T15:50:04.153Z,100228.25
2023-02-07T15:53:11.960Z,100224.06
2023-02-07T15:56:22.901Z,100236.91
2023-02-07T15:59:34.670Z,100225.66
2023-02-07T16:02:51.603Z,100228.84
2023-02-07T16:06:10.285Z,100227.91
2023-02-07T16:09:40.555Z,100238.41
2023-02-07T16:12:53.356Z,100233.97
2023-02-07T16:16:03.515Z,100235.28
2023-02-07T16:19:20.457Z,100234.66
2023-02-07T16:22:34.725Z,100247.00
2023-02-07T16:25:41.228Z,100253.81
2023-02-07T16:28:51.724Z,100253.34
2023-02-07T16:31:59.315Z,100249.19
2023-02-07T16:35:06.161Z,100270.53
2023-02-07T16:38:12.155Z,100264.56
2023-02-07T16:41:32.613Z,100270.63
2023-02-07T16:44:41.258Z,100267.00
2023-02-07T16:47:49.679Z,100266.94
2023-02-07T16:50:55.708Z,100270.69
2023-02-07T16:54:02.560Z,100263.19
2023-02-07T16:57:08.927Z,100266.34
2023-02-07T17:00:24.122Z,100265.97
2023-02-07T17:03:30.192Z,100272.59
2023-02-07T17:06:37.187Z,100277.34
2023-02-07T17:09:43.312Z,100288.09
2023-02-07T17:12:50.738Z,100283.81
2023-02-07T17:15:59.776Z,100284.38
2023-02-07T17:19:14.393Z,100289.19
2023-02-07T17:22:20.397Z,100279.72
2023-02-07T17:25:30.931Z,100285.34
2023-02-07T17:28:37.578Z,100296.59
2023-02-07T17:31:49.482Z,100294.56
2023-02-07T17:34:55.741Z,100289.31
2023-02-07T17:38:03.086Z,100287.50
2023-02-07T17:41:10.026Z,100284.13
2023-02-07T17:44:21.595Z,100292.69
2023-02-07T17:47:30.126Z,100300.59
2023-02-07T17:50:41.569Z,100295.94
2023-02-07T17:53:47.657Z,100301.50
2023-02-07T17:56:55.687Z,100299.09
2023-02-07T18:00:01.849Z,100293.38
2023-02-07T18:03:21.994Z,100303.66
2023-02-07T18:06:31.398Z,100317.34
2023-02-07T18:09:38.290Z,100309.34
2023-02-07T18:12:44.406Z,100309.41
2023-02-07T18:15:51.638Z,100299.81
2023-02-07T18:19:01.017Z,100318.16
2023-02-07T18:22:08.785Z,100316.31
2023-02-07T18:25:15.555Z,100306.69
2023-02-07T18:28:22.582Z,100329.88
2023-02-07T18:31:28.876Z,100322.00
2023-02-07T18:34:38.703Z,100323.75
2023-02-07T18:37:45.177Z,100326.28
2023-02-07T18:40:52.029Z,100333.91
2023-02-07T18:43:58.014Z,100333.13
2023-02-07T18:47:04.886Z,100337.47
2023-02-07T18:50:15.923Z,100335.56
2023-02-07T18:53:23.202Z,100311.75
2023-02-07T18:56:30.148Z,100340.13
2023-02-07T18:59:37.739Z,100343.38
2023-02-07T19:02:43.902Z,100340.81
2023-02-07T19:05:53.263Z,100345.72
2023-02-07T19:09:00.411Z,100344.88
2023-02-07T19:12:09.869Z,100342.94
2023-02-07T19:15:16.911Z,100348.91
2023-02-07T19:18:24.116Z,100341.66
2023-02-07T19:21:33.272Z,100345.06
2023-02-07T19:24:42.318Z,100331.31
2023-02-07T19:27:48.465Z,100337.81
2023-02-07T19:30:55.329Z,100338.63
2023-02-07T19:34:03.187Z,100335.13
2023-02-07T19:37:12.701Z,100337.09
2023-02-07T19:40:18.938Z,100348.50
2023-02-07T19:43:26.321Z,100348.34
2023-02-07T19:46:33.005Z,100341.22
2023-02-07T19:49:40.400Z,100354.91
2023-02-07T19:52:49.081Z,100352.03
2023-02-07T19:55:56.116Z,100353.75
2023-02-07T19:59:04.345Z,100356.31
2023-02-07T20:02:11.308Z,100352.63
2023-02-07T20:05:17.424Z,100356.06
2023-02-07T20:08:27.035Z,100361.25
2023-02-07T20:11:34.070Z,100366.28
2023-02-07T20:14:41.243Z,100376.63
2023-02-07T20:17:51.181Z,100382.78
2023-02-07T20:21:06.224Z,100371.41
2023-02-07T20:24:21.858Z,100386.13
2023-02-07T20:27:30.441Z,100383.78
2023-02-07T20:30:38.326Z,100384.59
2023-02-07T20:33:50.605Z,100385.25
2023-02-07T20:36:59.000Z,100380.78
2023-02-07T20:40:09.579Z,100372.06
2023-02-07T20:43:15.709Z,100385.78
2023-02-07T20:46:22.703Z,100388.31
2023-02-07T20:49:37.215Z,100385.75
2023-02-07T20:52:43.977Z,100382.13
2023-02-07T20:55:52.617Z,100383.06
2023-02-07T20:59:00.893Z,100381.84
2023-02-07T21:02:09.915Z,100388.81
2023-02-07T21:05:17.563Z,100387.91
2023-02-07T21:08:25.248Z,100388.88
2023-02-07T21:11:42.505Z,100381.84
2023-02-07T21:14:52.607Z,100383.63
2023-02-07T21:17:59.426Z,100380.81
2023-02-07T21:21:14.178Z,100388.06
2023-02-07T21:24:22.070Z,100389.75
2023-02-07T21:27:30.723Z,100393.41
2023-02-07T21:30:41.849Z,100395.88
2023-02-07T21:33:49.868Z,100410.41
2023-02-07T21:37:01.933Z,100418.03
2023-02-07T21:40:09.917Z,100411.25
2023-02-07T21:43:22.012Z,100405.28
2023-02-07T21:46:33.086Z,100409.66
2023-02-07T21:49:39.984Z,100399.41
2023-02-07T21:52:46.006Z,100408.94
2023-02-07T21:55:52.890Z,100415.94
2023-02-07T21:59:05.229Z,100412.44
2023-02-07T22:02:14.882Z,100411.34
2023-02-07T22:05:21.255Z,100416.50
2023-02-07T22:08:28.075Z,100406.06
2023-02-07T22:11:37.820Z,100404.56
2023-02-07T22:14:47.316Z,100399.09
2023-02-07T22:17:53.240Z,100395.44
2023-02-07T22:21:07.463Z,100399.69
2023-02-07T22:24:18.490Z,100405.19
2023-02-07T22:27:25.302Z,100406.13
2023-02-07T22:30:33.899Z,100411.06
2023-02-07T22:33:40.856Z,100407.81
2023-02-07T22:36:48.923Z,100420.00
2023-02-07T22:39:55.626Z,100412.06
2023-02-07T22:43:01.507Z,100404.56
2023-02-07T22:46:16.060Z,100410.31
2023-02-07T22:49:22.213Z,100409.47
2023-02-07T22:52:29.176Z,100419.19
2023-02-07T22:55:36.621Z,100414.91
2023-02-07T22:58:44.655Z,100415.94
2023-02-07T23:01:53.405Z,100415.66
2023-02-07T23:05:00.244Z,100406.97
2023-02-07T23:08:06.319Z,100404.94
2023-02-07T23:11:21.912Z,100408.53
2023-02-07T23:14:27.856Z,100408.19
2023-02-07T23:17:37.646Z,100397.09
2023-02-07T23:20:47.576Z,100401.38
2023-02-07T23:23:54.753Z,100400.44
2023-02-07T23:27:00.622Z,100412.66
2023-02-07T23:30:08.408Z,100411.84
2023-02-07T23:33:16.932Z,100406.69
2023-02-07T23:36:24.817Z,100415.66
2023-02-07T23:39:30.829Z,100411.81
2023-02-07T23:42:38.053Z,100400.63
2023-02-07T23:45:44.143Z,100408.28
2023-02-07T23:48:53.580Z,100407.81
2023-02-07T23:51:59.483Z,100410.66
2023-02-07T23:55:23.124Z,100416.94
2023-02-07T23:58:31.233Z,100403.78
